Time;durP1;ratioP1;P1;durP2;ratioP2;P2;SDS_P1;SDS_P2;PMS_P1;PMS_P2;Temp;Humidity;BMP_temperature;BMP_pressure;BME280_temperature;BME280_humidity;BME280_pressure;Samples;Min_cycle;Max_cycle;Signal;HPM_P1;HPM_P2
2022/04/21 00:00:59;;;;;;;28.12;22.52;;;;;;;10.30;61.44;98418.66;1731090;80;21059;-68
2022/04/21 00:03:25;;;;;;;29.37;22.52;;;;;;;10.30;61.45;98418.66;1732833;82;20901;-69
2022/04/21 00:05:53;;;;;;;29.82;22.40;;;;;;;10.26;61.52;98419.58;1690056;82;20935;-68
2022/04/21 00:08:21;;;;;;;29.42;23.47;;;;;;;10.24;61.64;98412.81;1721696;82;20869;-68
2022/04/21 00:10:47;;;;;;;26.77;21.48;;;;;;;10.21;61.69;98420.66;1735055;80;20983;-68
2022/04/21 00:13:16;;;;;;;26.87;21.87;;;;;;;10.22;61.80;98418.84;1732974;82;20932;-68
2022/04/21 00:15:44;;;;;;;30.10;22.90;;;;;;;10.23;61.87;98416.47;1688739;85;20876;-68
2022/04/21 00:18:13;;;;;;;27.32;21.65;;;;;;;10.21;61.94;98418.01;1733006;80;20894;-69
2022/04/21 00:20:41;;;;;;;23.70;20.65;;;;;;;10.21;62.03;98423.83;1732890;82;21154;-68
2022/04/21 00:26:01;;;;;;;25.57;21.33;;;;;;;10.20;62.05;98428.31;1732786;80;20980;-69
2022/04/21 00:28:28;;;;;;;27.65;22.90;;;;;;;10.19;62.09;98417.39;1722832;82;20983;-69
2022/04/21 00:30:57;;;;;;;27.90;21.82;;;;;;;10.18;62.14;98411.74;1737177;80;21099;-68
2022/04/21 00:33:23;;;;;;;26.60;21.45;;;;;;;10.20;62.17;98412.36;1737420;80;21252;-68
2022/04/21 00:35:50;;;;;;;26.07;21.45;;;;;;;10.21;62.24;98413.19;1732742;82;20982;-67
2022/04/21 00:38:18;;;;;;;26.87;22.02;;;;;;;10.22;62.27;98415.64;1734716;80;20975;-69
2022/04/21 00:40:45;;;;;;;24.35;21.48;;;;;;;10.22;62.30;98404.22;1732270;82;20892;-68
2022/04/21 00:43:13;;;;;;;27.82;21.90;;;;;;;10.22;62.30;98404.22;1731461;82;20976;-69
2022/04/21 00:45:40;;;;;;;28.38;22.82;;;;;;;10.20;62.32;98402.23;1691008;82;21355;-68
2022/04/21 00:48:07;;;;;;;30.40;23.10;;;;;;;10.16;62.38;98404.48;1736443;80;21596;-68
2022/04/21 00:50:37;;;;;;;27.35;22.15;;;;;;;10.11;62.50;98398.89;1732937;82;21008;-68
2022/04/21 00:53:04;;;;;;;26.42;22.05;;;;;;;10.09;62.62;98404.09;1734760;80;20939;-68
2022/04/21 00:55:31;;;;;;;27.07;21.97;;;;;;;10.09;62.78;98403.55;1732910;82;20948;-68
2022/04/21 00:57:58;;;;;;;27.25;22.87;;;;;;;10.09;62.88;98402.76;1733956;80;21212;-69
2022/04/21 01:00:24;;;;;;;27.10;22.27;;;;;;;10.08;62.93;98393.95;1735015;80;20916;-68
2022/04/21 01:02:52;;;;;;;30.00;22.55;;;;;;;10.09;62.97;98393.45;1735126;80;20960;-69
2022/04/21 01:05:29;;;;;;;30.32;23.18;;;;;;;10.08;62.97;98393.13;1722049;82;21035;-69
2022/04/21 01:07:58;;;;;;;29.33;23.60;;;;;;;10.09;63.00;98388.94;1734310;80;21065;-67
2022/04/21 01:10:27;;;;;;;28.35;23.38;;;;;;;10.07;62.99;98385.66;1735006;80;21890;-68
2022/04/21 01:12:53;;;;;;;30.88;23.47;;;;;;;10.04;63.12;98387.90;1736666;80;20941;-68
2022/04/21 01:15:21;;;;;;;31.97;23.60;;;;;;;10.05;63.21;98384.21;1724897;80;20936;-69
2022/04/21 01:17:48;;;;;;;30.37;23.92;;;;;;;10.07;63.24;98379.52;1734072;80;20916;-68
2022/04/21 01:20:21;;;;;;;31.87;24.12;;;;;;;10.05;63.24;98382.38;1734561;80;21195;-68
2022/04/21 01:22:48;;;;;;;32.78;24.43;;;;;;;10.04;63.26;98387.37;1735076;80;21166;-68
2022/04/21 01:25:14;;;;;;;33.45;25.90;;;;;;;10.01;63.37;98385.09;1731857;82;21036;-68
2022/04/21 01:27:42;;;;;;;32.25;24.98;;;;;;;9.97;63.54;98380.36;1732789;80;20936;-69
2022/04/21 01:30:11;;;;;;;29.05;23.65;;;;;;;9.96;63.62;98377.41;1713934;80;21489;-68
2022/04/21 01:32:42;;;;;;;30.15;24.40;;;;;;;9.94;63.71;98374.43;1735369;80;20983;-68
2022/04/21 01:35:11;;;;;;;34.78;24.50;;;;;;;9.98;63.67;98374.05;1732598;82;21879;-68
2022/04/21 01:42:55;;;;;;;30.97;24.25;;;;;;;9.97;64.07;98369.73;1707228;80;20972;-70
2022/04/21 01:45:23;;;;;;;31.87;24.25;;;;;;;9.96;64.04;98364.92;1722930;82;21451;-68
2022/04/21 01:47:50;;;;;;;27.48;23.32;;;;;;;9.89;64.22;98366.22;1716219;82;21261;-68
2022/04/21 01:50:18;;;;;;;29.20;23.35;;;;;;;9.89;64.35;98359.58;1732756;81;20987;-68
2022/04/21 01:52:45;;;;;;;31.95;23.85;;;;;;;9.90;64.69;98355.92;1735014;80;20888;-68
2022/04/21 01:55:13;;;;;;;34.23;25.17;;;;;;;9.90;64.82;98353.77;1731586;82;21483;-70
2022/04/21 01:57:39;;;;;;;33.33;25.50;;;;;;;9.90;65.19;98349.78;1734853;80;20979;-69
2022/04/21 02:00:11;;;;;;;27.65;23.50;;;;;;;9.90;65.56;98345.30;1737246;80;21060;-70
2022/04/21 02:02:38;;;;;;;29.72;24.72;;;;;;;9.84;66.89;98343.90;1735088;80;20956;-68
2022/04/21 02:05:06;;;;;;;30.35;24.85;;;;;;;9.81;67.00;98338.97;1734751;80;20991;-69
2022/04/21 02:07:34;;;;;;;29.90;24.12;;;;;;;9.77;67.73;98340.37;1732355;82;20966;-69
2022/04/21 02:10:05;;;;;;;32.55;25.48;;;;;;;9.77;67.43;98338.55;1750304;80;21057;-68
2022/04/21 02:12:34;;;;;;;28.77;24.95;;;;;;;9.77;67.73;98326.59;1753802;80;21010;-69
2022/04/21 02:15:03;;;;;;;34.73;26.15;;;;;;;9.73;67.67;98321.84;1752439;81;20891;-69
2022/04/21 02:17:32;;;;;;;33.20;24.85;;;;;;;9.72;68.75;98324.20;1753519;80;20923;-68
2022/04/21 02:20:00;;;;;;;30.97;23.87;;;;;;;9.72;68.12;98320.22;1754953;80;21034;-70
2022/04/21 02:22:28;;;;;;;30.45;24.15;;;;;;;9.70;68.00;98316.91;1752314;81;21537;-68
2022/04/21 02:24:54;;;;;;;29.52;25.10;;;;;;;9.69;67.96;98321.42;1752373;81;22200;-68
2022/04/21 02:27:22;;;;;;;28.02;23.90;;;;;;;9.68;67.96;98319.77;1743502;80;20927;-67
2022/04/21 02:29:49;;;;;;;28.95;24.10;;;;;;;9.65;68.05;98318.82;1753991;80;20986;-69
2022/04/21 02:32:15;;;;;;;31.65;24.98;;;;;;;9.64;68.12;98311.89;1752443;81;21060;-68
2022/04/21 02:34:42;;;;;;;29.32;24.50;;;;;;;9.99;66.95;98303.44;1752385;81;20940;-68
2022/04/21 02:37:08;;;;;;;28.15;23.22;;;;;;;9.67;67.75;98306.70;1752374;81;21182;-67
2022/04/21 02:39:35;;;;;;;30.92;24.67;;;;;;;9.85;67.52;98298.53;1741444;81;21568;-68
2022/04/21 02:42:03;;;;;;;30.08;24.87;;;;;;;9.99;66.77;98299.95;1750020;81;20887;-68
2022/04/21 02:44:29;;;;;;;27.77;23.92;;;;;;;9.58;67.95;98296.72;1753308;80;21597;-68
2022/04/21 02:46:58;;;;;;;29.27;23.57;;;;;;;9.54;68.19;98298.09;1742549;80;20895;-69
2022/04/21 02:49:27;;;;;;;27.25;22.67;;;;;;;9.53;68.22;98295.14;1733022;81;20915;-68
2022/04/21 02:51:54;;;;;;;29.72;23.90;;;;;;;9.51;68.35;98298.50;1752317;81;21026;-68
2022/04/21 02:57:22;;;;;;;25.43;22.73;;;;;;;9.53;68.45;98295.14;1753870;80;20939;-67
2022/04/21 02:59:55;;;;;;;26.97;22.67;;;;;;;9.55;68.48;98294.44;1713498;81;21007;-67
2022/04/21 03:02:21;;;;;;;28.98;23.65;;;;;;;9.54;68.47;98294.11;1720078;83;21522;-69
2022/04/21 03:04:51;;;;;;;26.57;23.40;;;;;;;9.53;68.48;98293.81;1753543;80;20998;-68
2022/04/21 03:07:20;;;;;;;27.00;22.80;;;;;;;9.49;68.49;98292.54;1750808;81;21058;-68
2022/04/21 03:09:53;;;;;;;29.42;23.55;;;;;;;9.50;68.53;98289.39;1741112;80;20967;-69
2022/04/21 03:12:26;;;;;;;30.82;23.40;;;;;;;9.49;68.88;98283.78;1722227;82;21462;-68
2022/04/21 03:14:55;;;;;;;25.62;22.67;;;;;;;9.51;68.93;98293.70;1734310;80;21216;-68
2022/04/21 03:17:22;;;;;;;28.87;23.70;;;;;;;9.50;68.85;98290.22;1722655;82;20923;-68
2022/04/21 03:19:48;;;;;;;30.77;24.35;;;;;;;9.56;68.64;98281.98;1690373;82;21000;-68
2022/04/21 03:25:05;;;;;;;28.35;21.97;;;;;;;9.59;68.36;98279.78;1735019;80;20927;-69
2022/04/21 03:27:34;;;;;;;26.50;22.85;;;;;;;9.60;68.27;98284.06;1732847;82;20999;-68
2022/04/21 03:30:03;;;;;;;27.70;24.18;;;;;;;9.59;68.25;98280.28;1731749;82;20980;-68
2022/04/21 03:32:31;;;;;;;28.00;23.25;;;;;;;9.60;68.10;98277.92;1737333;80;20952;-68
2022/04/21 03:35:00;;;;;;;29.82;24.25;;;;;;;9.56;68.00;98281.48;1732609;81;20972;-68
2022/04/21 03:37:27;;;;;;;29.15;24.77;;;;;;;9.55;68.04;98281.16;1735296;80;21938;-69
2022/04/21 03:39:53;;;;;;;34.05;28.00;;;;;;;9.52;68.05;98280.22;1712038;80;21302;-68
2022/04/21 03:42:24;;;;;;;30.43;25.40;;;;;;;9.53;68.08;98275.23;1731412;82;21062;-68
2022/04/21 03:44:51;;;;;;;26.73;23.65;;;;;;;9.52;68.21;98273.58;1734952;80;21093;-69
2022/04/21 03:47:19;;;;;;;26.40;23.57;;;;;;;9.52;68.45;98269.59;1732785;82;21507;-68
2022/04/21 03:49:47;;;;;;;28.70;23.73;;;;;;;9.56;68.41;98277.51;1736279;80;21090;-68
2022/04/21 03:52:14;;;;;;;27.22;23.47;;;;;;;9.55;68.33;98275.03;1687285;85;21868;-68
2022/04/21 03:54:40;;;;;;;26.93;23.22;;;;;;;9.50;68.43;98274.28;1735135;80;20904;-67
2022/04/21 03:57:07;;;;;;;27.22;23.52;;;;;;;9.49;68.65;98277.94;1734959;80;20928;-68
2022/04/21 03:59:34;;;;;;;27.80;23.07;;;;;;;9.48;68.68;98266.20;1716530;80;21045;-68
2022/04/21 04:02:04;;;;;;;27.35;24.00;;;;;;;9.50;68.87;98273.45;1729624;82;21533;-68
2022/04/21 04:04:35;;;;;;;24.18;21.57;;;;;;;9.49;69.67;98272.63;1732882;82;20889;-69
2022/04/21 04:12:37;;;;;;;25.12;22.45;;;;;;;9.52;69.35;98265.61;1745891;80;20966;-69
2022/04/21 04:15:06;;;;;;;24.65;21.35;;;;;;;9.58;69.27;98265.36;1753937;80;20981;-69
2022/04/21 04:17:34;;;;;;;24.37;21.00;;;;;;;9.61;69.27;98267.62;1752636;80;21619;-68
2022/04/21 04:20:02;;;;;;;24.87;22.17;;;;;;;9.68;69.14;98265.83;1738539;81;20990;-68
2022/04/21 04:22:40;;;;;;;24.77;22.17;;;;;;;9.69;69.14;98270.14;1753686;80;20911;-69
2022/04/21 04:25:09;;;;;;;25.72;23.15;;;;;;;9.70;69.01;98264.63;1755387;80;21005;-68
2022/04/21 04:27:37;;;;;;;25.32;22.62;;;;;;;9.68;69.08;98267.98;1755352;80;20971;-68
2022/04/21 04:30:07;;;;;;;24.67;22.00;;;;;;;9.69;69.26;98264.33;1741375;81;21211;-68
2022/04/21 04:32:35;;;;;;;24.90;22.40;;;;;;;9.73;69.48;98268.23;1753671;80;21001;-68
2022/04/21 04:35:05;;;;;;;23.85;21.33;;;;;;;9.76;69.44;98265.19;1755284;80;21069;-68
2022/04/21 04:37:33;;;;;;;24.70;22.17;;;;;;;9.77;69.48;98269.50;1755246;80;21013;-68
2022/04/21 04:40:00;;;;;;;24.82;22.20;;;;;;;9.78;69.64;98272.45;1741535;80;21010;-68
2022/04/21 04:42:28;;;;;;;27.67;22.40;;;;;;;9.82;69.62;98268.91;1753910;80;21261;-68
2022/04/21 04:47:41;;;;;;;26.27;23.30;;;;;;;9.87;69.64;98271.30;1753880;80;20994;-68
2022/04/21 04:50:09;;;;;;;25.08;22.35;;;;;;;9.88;69.66;98270.26;1750505;80;21004;-68
2022/04/21 04:52:37;;;;;;;26.48;23.65;;;;;;;9.86;69.69;98266.98;1752301;81;21505;-68
2022/04/21 04:55:09;;;;;;;26.17;23.10;;;;;;;9.85;69.71;98262.67;1755188;80;21237;-68
2022/04/21 04:57:39;;;;;;;27.45;22.98;;;;;;;9.81;69.69;98264.59;1752237;81;21007;-67
2022/04/21 05:00:08;;;;;;;25.62;23.00;;;;;;;9.77;70.33;98266.84;1737395;81;20907;-67
2022/04/21 05:02:36;;;;;;;25.37;22.67;;;;;;;9.76;70.66;98266.52;1755144;80;20903;-68
2022/04/21 05:05:05;;;;;;;26.12;23.35;;;;;;;9.72;71.25;98267.11;1752576;81;21698;-69
2022/04/21 05:07:32;;;;;;;30.75;23.18;;;;;;;9.70;71.55;98272.59;1752345;81;21797;-69
2022/04/21 05:10:00;;;;;;;27.17;23.07;;;;;;;9.74;71.61;98270.37;1752363;80;20990;-68
2022/04/21 05:12:26;;;;;;;27.95;23.55;;;;;;;9.75;71.66;98267.52;1750827;80;20943;-69
2022/04/21 05:14:54;;;;;;;29.52;21.93;;;;;;;9.82;72.23;98265.75;1751246;80;20908;-69
2022/04/21 05:17:23;;;;;;;25.77;22.98;;;;;;;9.75;71.86;98266.19;1733398;82;22518;-69
2022/04/21 05:19:52;;;;;;;28.12;23.05;;;;;;;9.73;71.80;98259.43;1749879;82;21847;-68
2022/04/21 05:22:27;;;;;;;29.35;23.40;;;;;;;9.74;71.75;98265.89;1740336;80;20982;-69
2022/04/21 05:24:54;;;;;;;25.23;22.48;;;;;;;9.76;71.64;98260.38;1749783;82;21473;-68
2022/04/21 05:27:22;;;;;;;27.82;22.82;;;;;;;9.74;71.60;98269.88;1740690;80;20916;-69
2022/04/21 05:32:40;;;;;;;25.60;21.75;;;;;;;9.75;71.79;98255.56;1702749;83;20980;-68
2022/04/21 05:35:11;;;;;;;25.95;23.12;;;;;;;9.77;71.70;98263.36;1751937;80;21537;-70
2022/04/21 05:37:40;;;;;;;23.92;21.12;;;;;;;9.80;71.74;98258.98;1747315;80;21477;-71
2022/04/21 05:40:08;;;;;;;24.55;21.97;;;;;;;9.82;71.77;98261.77;1752450;80;21001;-68
2022/04/21 05:42:36;;;;;;;24.85;22.20;;;;;;;9.85;71.67;98267.20;1709808;83;21074;-69
2022/04/21 05:45:03;;;;;;;24.12;21.73;;;;;;;9.90;71.59;98272.23;1748926;80;21256;-68
2022/04/21 05:47:30;;;;;;;25.75;22.60;;;;;;;9.99;71.48;98270.73;1738270;82;20899;-68
2022/04/21 05:49:57;;;;;;;24.25;21.75;;;;;;;10.04;71.23;98263.02;1738564;82;20856;-68
2022/04/21 05:52:24;;;;;;;23.02;20.60;;;;;;;10.05;71.19;98269.95;1749063;82;20962;-68
2022/04/21 05:54:52;;;;;;;24.27;21.82;;;;;;;10.02;71.16;98263.70;1752252;80;20998;-69
2022/04/21 05:57:20;;;;;;;23.55;21.05;;;;;;;10.04;71.00;98270.99;1737541;80;21206;-71
2022/04/21 05:59:49;;;;;;;26.52;21.60;;;;;;;10.61;69.23;98262.16;1738220;82;20971;-68
2022/04/21 06:02:16;;;;;;;24.52;21.85;;;;;;;10.12;70.43;98258.84;1751101;80;21065;-69
2022/04/21 06:04:42;;;;;;;25.23;21.70;;;;;;;10.08;70.99;98269.56;1748192;82;21454;-70
2022/04/21 06:07:09;;;;;;;24.25;21.70;;;;;;;10.12;71.08;98262.36;1748503;80;21044;-68
2022/04/21 06:09:36;;;;;;;24.12;21.02;;;;;;;10.17;71.04;98263.91;1737043;81;22136;-70
2022/04/21 06:12:05;;;;;;;22.42;20.20;;;;;;;10.22;71.05;98261.48;1750871;81;21377;-69
2022/04/21 06:14:34;;;;;;;22.30;20.10;;;;;;;10.26;71.00;98260.59;1736279;82;20943;-68
2022/04/21 06:17:01;;;;;;;24.27;20.50;;;;;;;10.27;71.11;98260.38;1749772;81;21050;-68
2022/04/21 06:19:29;;;;;;;22.45;20.08;;;;;;;10.30;71.00;98261.33;1753447;80;21458;-72
2022/04/21 06:21:55;;;;;;;22.62;19.87;;;;;;;10.32;70.89;98259.31;1752216;81;21209;-70
2022/04/21 06:24:22;;;;;;;20.88;18.80;;;;;;;10.35;71.94;98258.09;1755164;80;21022;-71
2022/04/21 06:26:48;;;;;;;22.17;19.87;;;;;;;10.26;72.95;98261.92;1739197;81;20998;-70
2022/04/21 06:29:15;;;;;;;19.62;17.62;;;;;;;10.93;70.29;98264.09;1751752;81;21639;-71
2022/04/21 06:31:42;;;;;;;19.92;18.02;;;;;;;11.15;68.94;98260.77;1752403;81;21485;-71
2022/04/21 06:34:09;;;;;;;18.65;16.95;;;;;;;11.27;68.46;98259.63;1749848;80;21130;-69
2022/04/21 06:36:35;;;;;;;18.92;17.00;;;;;;;11.34;68.06;98263.14;1734280;82;21074;-69
2022/04/21 06:39:03;;;;;;;19.40;17.50;;;;;;;11.32;67.96;98263.33;1752308;81;21421;-72
2022/04/21 06:41:32;;;;;;;18.27;16.42;;;;;;;11.20;68.56;98258.31;1741673;80;20998;-71
2022/04/21 06:49:30;;;;;;;16.62;14.95;;;;;;;10.68;69.64;98272.83;1735216;82;20993;-68
2022/04/21 06:51:57;;;;;;;16.50;14.58;;;;;;;10.75;68.95;98262.52;1746739;81;21509;-70
2022/04/21 06:54:23;;;;;;;16.65;14.93;;;;;;;10.70;69.43;98263.63;1752109;81;20871;-69
2022/04/21 06:56:50;;;;;;;17.40;15.60;;;;;;;10.75;68.97;98265.69;1742316;80;20931;-67
2022/04/21 06:59:17;;;;;;;17.77;15.88;;;;;;;10.68;69.32;98269.67;1746011;80;21249;-69
2022/04/21 07:01:47;;;;;;;18.05;16.17;;;;;;;10.60;69.63;98263.20;1755365;80;20860;-67
2022/04/21 07:04:15;;;;;;;17.75;15.85;;;;;;;10.59;69.92;98264.70;1751509;81;20959;-68
2022/04/21 07:06:42;;;;;;;18.57;16.77;;;;;;;10.66;69.52;98264.23;1752506;80;20947;-69
2022/04/21 07:09:09;;;;;;;16.87;15.20;;;;;;;10.55;69.91;98264.30;1742588;80;21532;-68
2022/04/21 07:11:40;;;;;;;16.25;14.65;;;;;;;10.49;70.25;98266.42;1736390;80;20990;-69
2022/04/21 07:14:08;;;;;;;15.75;13.88;;;;;;;10.48;71.07;98264.80;1688431;84;22267;-67
2022/04/21 07:16:35;;;;;;;16.20;14.53;;;;;;;10.56;71.37;98257.95;1715240;82;20895;-69
2022/04/21 07:19:03;;;;;;;15.58;13.98;;;;;;;10.56;71.51;98256.61;1726176;80;21423;-70
2022/04/21 07:21:31;;;;;;;14.85;13.38;;;;;;;10.58;71.46;98255.11;1721447;80;20944;-68
2022/04/21 07:23:57;;;;;;;14.70;13.25;;;;;;;10.52;71.34;98258.88;1722824;80;21439;-67
2022/04/21 07:26:24;;;;;;;14.75;13.25;;;;;;;10.51;71.49;98258.55;1734573;80;20856;-70
2022/04/21 07:28:51;;;;;;;15.10;13.55;;;;;;;10.65;71.25;98257.27;1733483;80;21001;-69
2022/04/21 07:31:17;;;;;;;15.78;14.20;;;;;;;10.65;71.07;98254.61;1732153;80;21486;-67
2022/04/21 07:33:45;;;;;;;15.83;14.13;;;;;;;10.68;70.83;98256.37;1736277;80;20991;-69
2022/04/21 07:36:12;;;;;;;15.80;14.20;;;;;;;10.74;70.81;98252.89;1729003;80;21204;-69
2022/04/21 07:38:38;;;;;;;14.03;12.73;;;;;;;10.84;70.81;98256.52;1715394;80;21561;-70
2022/04/21 07:41:05;;;;;;;14.75;13.28;;;;;;;10.89;70.64;98258.88;1726328;80;21053;-69
2022/04/21 07:43:33;;;;;;;14.05;12.55;;;;;;;10.94;70.32;98260.42;1719505;82;20963;-68
2022/04/21 07:46:01;;;;;;;15.35;13.75;;;;;;;10.99;70.14;98248.66;1723864;82;20987;-68
2022/04/21 07:49:44;;;;;;;14.58;13.10;;;;;;;11.05;70.07;98249.16;1723976;82;21248;-69
2022/04/21 07:50:56;;;;;;;14.60;13.15;;;;;;;11.12;70.14;98251.34;1722197;82;21050;-67
2022/04/21 07:53:24;;;;;;;16.97;14.87;;;;;;;11.22;69.80;98252.77;1714921;82;21494;-68
2022/04/21 07:55:50;;;;;;;17.77;15.83;;;;;;;11.29;69.61;98258.94;1732955;80;20943;-69
2022/04/21 07:58:19;;;;;;;18.35;16.30;;;;;;;11.31;69.43;98258.22;1732886;82;21034;-68
2022/04/21 08:00:46;;;;;;;19.30;16.30;;;;;;;11.30;69.22;98261.89;1732930;82;21736;-68
2022/04/21 08:03:16;;;;;;;17.50;15.60;;;;;;;11.33;69.09;98260.98;1734991;80;20929;-68
2022/04/21 08:05:41;;;;;;;17.50;15.63;;;;;;;11.36;70.03;98265.91;1735097;80;21037;-68
2022/04/21 08:08:11;;;;;;;19.35;15.80;;;;;;;11.43;69.75;98261.90;1734877;80;20971;-68
2022/04/21 08:10:37;;;;;;;17.23;15.15;;;;;;;11.51;69.45;98258.53;1741778;80;20946;-68
2022/04/21 08:13:03;;;;;;;16.27;14.58;;;;;;;11.56;69.12;98264.56;1752530;81;21155;-67
2022/04/21 08:15:33;;;;;;;14.70;13.30;;;;;;;11.61;68.87;98267.42;1753794;80;21476;-68
2022/04/21 08:18:02;;;;;;;14.85;13.35;;;;;;;11.60;68.38;98256.48;1753928;80;21484;-68
2022/04/21 08:20:31;;;;;;;13.62;12.23;;;;;;;11.59;68.32;98266.31;1753769;80;20994;-67
2022/04/21 08:22:58;;;;;;;12.82;11.63;;;;;;;11.61;68.48;98262.09;1752660;81;21021;-68
2022/04/21 08:33:42;;;;;;;13.13;11.85;;;;;;;11.62;68.15;98270.41;1725566;82;20979;-68
2022/04/21 08:36:10;;;;;;;14.90;12.50;;;;;;;11.56;67.98;98274.70;1753981;80;20964;-68
2022/04/21 08:38:39;;;;;;;13.78;12.05;;;;;;;11.54;67.78;98281.27;1752476;81;21011;-69
2022/04/21 08:41:07;;;;;;;14.68;12.63;;;;;;;11.48;67.64;98273.58;1755247;80;21401;-68
2022/04/21 08:43:34;;;;;;;13.00;11.63;;;;;;;11.44;67.78;98269.70;1752411;81;20891;-68
2022/04/21 08:46:00;;;;;;;13.38;11.75;;;;;;;11.45;68.10;98269.98;1753931;80;20947;-68
2022/04/21 08:48:28;;;;;;;13.20;11.78;;;;;;;11.49;68.27;98271.74;1753819;80;20967;-68
2022/04/21 08:50:56;;;;;;;13.10;11.90;;;;;;;11.49;68.02;98264.58;1752569;81;21158;-69
2022/04/21 08:53:24;;;;;;;13.65;12.28;;;;;;;11.51;69.11;98268.36;1753606;80;20951;-68
2022/04/21 08:55:52;;;;;;;12.80;11.53;;;;;;;11.58;71.07;98265.16;1753284;80;21552;-68
2022/04/21 08:58:20;;;;;;;14.20;12.90;;;;;;;11.66;70.80;98266.30;1741517;81;21002;-68
2022/04/21 09:00:48;;;;;;;14.53;13.08;;;;;;;11.66;69.64;98262.30;1753795;80;21038;-69
2022/04/21 09:03:15;;;;;;;13.15;11.85;;;;;;;11.67;69.32;98263.95;1753796;80;21202;-68
2022/04/21 09:05:44;;;;;;;14.13;12.85;;;;;;;11.67;70.23;98262.11;1753873;80;21462;-68
2022/04/21 09:08:26;;;;;;;12.82;11.63;;;;;;;11.76;70.81;98261.39;1752633;81;21006;-68
2022/04/21 09:11:10;;;;;;;12.73;11.43;;;;;;;11.88;70.37;98254.94;1752392;81;21325;-68
2022/04/21 09:13:43;;;;;;;13.30;11.88;;;;;;;11.90;69.16;98253.70;1723066;83;21561;-68
2022/04/21 09:16:12;;;;;;;13.45;12.13;;;;;;;11.94;68.91;98258.91;1729995;83;20957;-67
2022/04/21 09:18:43;;;;;;;13.13;11.80;;;;;;;12.01;68.53;98258.91;1752255;81;20999;-67
2022/04/21 09:21:15;;;;;;;12.47;11.22;;;;;;;12.01;67.82;98257.06;1755430;80;21494;-68
2022/04/21 09:23:44;;;;;;;12.13;10.93;;;;;;;11.97;67.34;98251.83;1753947;80;20919;-68
2022/04/21 09:26:18;;;;;;;12.23;11.03;;;;;;;12.00;67.45;98251.42;1753534;80;21057;-67
2022/04/21 09:28:55;;;;;;;11.95;10.88;;;;;;;12.03;67.33;98255.52;1753847;80;21408;-68
2022/04/21 09:31:21;;;;;;;10.90;9.90;;;;;;;12.04;67.04;98254.49;1742498;80;20950;-68
2022/04/21 09:33:50;;;;;;;11.70;10.68;;;;;;;12.10;67.11;98247.80;1711616;81;20958;-67
2022/04/21 09:36:18;;;;;;;11.03;10.03;;;;;;;12.05;67.37;98251.61;1752361;81;21033;-69
2022/04/21 09:38:59;;;;;;;11.40;10.32;;;;;;;12.07;67.20;98246.09;1698475;82;20936;-68
2022/04/21 09:41:30;;;;;;;11.00;9.90;;;;;;;12.07;67.36;98248.75;1742820;81;21163;-68
2022/04/21 09:46:56;;;;;;;9.90;8.80;;;;;;;12.09;66.78;98251.52;1753949;80;20930;-67
2022/04/21 09:49:44;;;;;;;8.98;8.25;;;;;;;12.00;66.58;98250.08;1741794;81;20954;-69
2022/04/21 09:52:12;;;;;;;9.00;8.20;;;;;;;11.96;66.37;98242.72;1752539;81;20968;-68
2022/04/21 09:54:45;;;;;;;10.00;9.10;;;;;;;11.93;66.06;98249.29;1753718;80;21141;-68
2022/04/21 09:57:09;;;;;;;9.48;8.60;;;;;;;11.92;66.07;98246.30;1752077;81;20929;-68
2022/04/21 09:59:36;;;;;;;9.75;8.75;;;;;;;11.93;66.08;98245.29;1752338;81;21054;-69
2022/04/21 10:02:04;;;;;;;9.00;8.20;;;;;;;11.96;66.22;98240.88;1752484;81;20972;-68
2022/04/21 10:04:31;;;;;;;10.03;9.10;;;;;;;11.95;66.03;98251.22;1753711;80;20927;-68
2022/04/21 10:06:58;;;;;;;10.48;9.43;;;;;;;11.86;65.73;98257.81;1752419;81;21344;-69
2022/04/21 10:09:25;;;;;;;10.08;9.23;;;;;;;11.79;65.99;98263.65;1754056;80;20931;-68
2022/04/21 10:11:55;;;;;;;9.98;9.08;;;;;;;11.76;66.27;98261.39;1752534;81;21379;-68
2022/04/21 10:14:22;;;;;;;10.20;9.28;;;;;;;11.80;66.60;98267.14;1741835;81;21520;-68
2022/04/21 10:16:51;;;;;;;10.18;9.28;;;;;;;11.81;66.74;98269.58;1753951;80;20918;-69
2022/04/21 10:19:19;;;;;;;9.98;9.00;;;;;;;11.84;66.79;98270.50;1752335;81;21255;-68
2022/04/21 10:21:56;;;;;;;10.88;9.88;;;;;;;11.75;66.37;98274.42;1722928;82;20950;-69
2022/04/21 10:24:29;;;;;;;9.90;9.00;;;;;;;11.69;66.36;98278.73;1743845;80;20943;-68
2022/04/21 10:26:56;;;;;;;10.72;9.70;;;;;;;11.68;66.63;98279.74;1756599;80;20947;-69
2022/04/21 10:29:27;;;;;;;11.22;10.03;;;;;;;11.68;66.67;98281.08;1722705;82;20847;-67
2022/04/21 10:32:05;;;;;;;11.20;10.10;;;;;;;11.68;66.73;98285.55;1752536;81;21876;-69
2022/04/21 10:34:45;;;;;;;11.30;10.25;;;;;;;11.66;66.48;98290.27;1722190;83;20924;-68
2022/04/21 10:37:17;;;;;;;11.50;10.50;;;;;;;11.55;66.51;98291.70;1752699;80;21011;-67
2022/04/21 10:40:14;;;;;;;13.05;11.80;;;;;;;11.47;66.64;98292.44;1753936;80;20917;-68
2022/04/21 10:42:55;;;;;;;12.30;11.10;;;;;;;11.36;66.70;98290.38;1753984;80;20931;-68
2022/04/21 10:45:26;;;;;;;14.78;11.73;;;;;;;11.31;67.06;98292.33;1752464;81;20935;-68
2022/04/21 10:48:09;;;;;;;13.03;11.73;;;;;;;11.28;67.34;98295.39;1752606;81;20896;-67
2022/04/21 10:50:40;;;;;;;13.35;12.15;;;;;;;11.28;67.47;98296.72;1744203;81;21061;-68
2022/04/21 10:58:47;;;;;;;10.78;9.83;;;;;;;11.25;67.83;98290.97;1759576;80;21296;-70
2022/04/21 11:01:17;;;;;;;10.40;9.50;;;;;;;11.23;67.84;98294.36;1751982;81;20897;-68
2022/04/21 11:04:04;;;;;;;10.25;9.20;;;;;;;11.18;67.81;98297.09;1753932;80;21438;-67
2022/04/21 11:06:43;;;;;;;10.05;9.10;;;;;;;11.14;67.84;98297.70;1745467;80;21584;-69
2022/04/21 11:09:45;;;;;;;10.90;9.90;;;;;;;11.16;67.81;98303.64;1754132;80;21105;-68
2022/04/21 11:12:16;;;;;;;9.70;8.90;;;;;;;11.14;67.96;98297.20;1752521;81;20990;-68
2022/04/21 11:14:44;;;;;;;10.23;9.23;;;;;;;11.12;67.96;98300.59;1753916;80;20915;-67
2022/04/21 11:17:11;;;;;;;11.57;10.48;;;;;;;11.13;68.11;98307.53;1752647;81;21005;-67
2022/04/21 11:19:45;;;;;;;10.05;9.15;;;;;;;11.15;68.16;98302.84;1752408;81;21042;-69
2022/04/21 11:22:14;;;;;;;10.03;9.13;;;;;;;11.16;68.14;98307.63;1752196;80;20986;-69
2022/04/21 11:25:01;;;;;;;9.60;8.70;;;;;;;11.18;68.06;98306.41;1752535;81;20979;-68
2022/04/21 11:27:31;;;;;;;10.45;9.45;;;;;;;11.15;68.14;98306.84;1752407;81;20931;-69
2022/04/21 11:30:05;;;;;;;9.93;8.98;;;;;;;11.13;68.33;98306.20;1752634;81;21493;-68
2022/04/21 11:32:33;;;;;;;9.00;8.20;;;;;;;11.15;68.44;98304.18;1752543;81;20955;-69
2022/04/21 11:35:13;;;;;;;9.43;8.55;;;;;;;11.14;68.32;98303.86;1753962;80;21010;-69
2022/04/21 11:37:59;;;;;;;8.55;7.83;;;;;;;11.14;68.47;98309.69;1755334;80;21002;-69
2022/04/21 11:40:39;;;;;;;8.05;7.25;;;;;;;11.14;68.57;98303.86;1750243;81;20887;-69
2022/04/21 11:43:15;;;;;;;9.68;8.40;;;;;;;11.14;68.44;98309.19;1753903;80;21438;-67
2022/04/21 11:46:01;;;;;;;8.90;8.03;;;;;;;11.14;68.48;98311.02;1752322;81;20986;-69
2022/04/21 11:48:34;;;;;;;8.58;7.78;;;;;;;11.17;68.46;98313.28;1755264;80;21406;-68
2022/04/21 11:51:01;;;;;;;8.80;8.00;;;;;;;11.23;68.55;98312.98;1742440;80;21832;-68
2022/04/21 11:53:36;;;;;;;8.50;7.80;;;;;;;11.24;68.40;98311.98;1752263;81;20898;-69
2022/04/21 11:56:04;;;;;;;9.33;8.43;;;;;;;11.26;68.46;98307.27;1752538;81;20895;-68
2022/04/21 11:58:37;;;;;;;8.95;7.85;;;;;;;11.30;68.55;98307.16;1753771;80;21524;-66
2022/04/21 12:06:51;;;;;;;8.83;8.00;;;;;;;11.34;68.67;98305.20;1721831;83;21077;-68
2022/04/21 12:09:24;;;;;;;9.05;8.15;;;;;;;11.33;68.95;98306.25;1730066;83;20994;-68
2022/04/21 12:12:01;;;;;;;9.65;8.65;;;;;;;11.34;69.11;98301.21;1727758;82;21502;-68
2022/04/21 12:14:29;;;;;;;9.25;8.33;;;;;;;11.34;69.28;98303.08;1715937;83;21333;-68
2022/04/21 12:17:01;;;;;;;8.55;7.35;;;;;;;11.34;69.35;98299.08;1724193;83;20884;-68
2022/04/21 12:19:39;;;;;;;8.48;7.67;;;;;;;11.32;69.58;98305.09;1724762;83;20972;-68
2022/04/21 12:22:20;;;;;;;8.68;7.87;;;;;;;11.34;69.66;98307.08;1723791;83;20928;-67
2022/04/21 12:24:53;;;;;;;10.08;7.92;;;;;;;11.30;69.81;98301.83;1724388;83;21438;-69